LICR/REG METAR and TAF weather

Enter ICAO airport designator
Station Type Date Time Source
LICR METAR 2019/10/21 04:50 UTC NOAA

LICR 210450Z 05005KT CAVOK 18/14 Q1020


Station Type Date Time Source
LICR Decoded METAR 2019/10/21 04:50 UTC NOAA

Reggio Calabria, Italy (LICR) 38-04N 015-39E 21M
Oct 21, 2019 - 12:50 AM EDT / 2019.10.21 0450 UTC
Wind: from the NE (050 degrees) at 6 MPH (5 KT):0
Visibility: greater than 7 mile(s):0
Temperature: 64 F (18 C)
Dew Point: 57 F (14 C)
Relative Humidity: 77%
Pressure (altimeter): 30.12 in. Hg (1020 hPa)
ob: LICR 210450Z 05005KT CAVOK 18/14 Q1020
cycle: 5

Station Type Date Time Source
LICR TAF 2019/10/21 06:24 UTC NOAA

TAF LICR 210500Z 2106/2206 VRB05KT CAVOK

Example: see airport list